CAL135 ROAH-RCKH
Flight info
| Callsign | CAL135 |
|---|---|
| Flight time | 1h 23m |
| Altitude | 32000 |
| Route | OLVAL V91 MJC G581 IGURU Q13 PICHU J7 HCN HCN1H |
| Aircraft | B77W/H-SDE1E2E3FGHIJ2J3J5M1P2RWY/LB1D1 |
Departure
| Time | 2026-04-15 13:59 |
|---|---|
| Airport | Naha International Airport (ROAH) |
Arrival
| Time | 2026-04-15 15:22 |
|---|---|
| Airport | Kaohsiung International Airport (RCKH) |
| Time | Latitude | Longitude | Altitude | Speed | Heading |
|---|---|---|---|---|---|
| 2026-04-15 13:27 | 26.21074 | 127.64963 | 26 ft | 0 kts | 87° |
| 2026-04-15 13:47 | 26.21073 | 127.64910 | 31 ft | 4 kts | 110° |
| 2026-04-15 13:47 | 26.21088 | 127.64888 | 25 ft | 4 kts | 152° |
| 2026-04-15 13:47 | 26.21112 | 127.64880 | 26 ft | 2 kts | 176° |
| 2026-04-15 13:48 | 26.21134 | 127.64878 | 29 ft | 4 kts | 177° |
| 2026-04-15 13:48 | 26.21161 | 127.64877 | 29 ft | 4 kts | 177° |
| 2026-04-15 13:48 | 26.21188 | 127.64876 | 29 ft | 4 kts | 177° |
| 2026-04-15 13:48 | 26.21216 | 127.64875 | 32 ft | 4 kts | 177° |
| 2026-04-15 13:49 | 26.21242 | 127.64873 | 26 ft | 4 kts | 171° |
| 2026-04-15 13:49 | 26.21268 | 127.64866 | 30 ft | 4 kts | 160° |
| 2026-04-15 13:49 | 26.21292 | 127.64854 | 26 ft | 4 kts | 146° |
| 2026-04-15 13:49 | 26.21310 | 127.64837 | 25 ft | 1 kts | 133° |
| 2026-04-15 13:50 | 26.21311 | 127.64837 | 26 ft | 0 kts | 133° |
| 2026-04-15 13:52 | 26.21299 | 127.64851 | 26 ft | 9 kts | 132° |
| 2026-04-15 13:52 | 26.21233 | 127.64874 | 29 ft | 10 kts | 176° |
| 2026-04-15 13:52 | 26.21154 | 127.64878 | 28 ft | 14 kts | 177° |
| 2026-04-15 13:52 | 26.21054 | 127.64883 | 28 ft | 15 kts | 178° |
| 2026-04-15 13:53 | 26.20964 | 127.64887 | 28 ft | 11 kts | 179° |
| 2026-04-15 13:53 | 26.20917 | 127.64828 | 27 ft | 12 kts | 264° |
| 2026-04-15 13:53 | 26.20879 | 127.64750 | 24 ft | 12 kts | 216° |
| 2026-04-15 13:53 | 26.20772 | 127.64739 | 23 ft | 23 kts | 178° |
| 2026-04-15 13:54 | 26.20592 | 127.64747 | 22 ft | 25 kts | 177° |
| 2026-04-15 13:54 | 26.20421 | 127.64755 | 24 ft | 25 kts | 178° |
| 2026-04-15 13:54 | 26.20251 | 127.64763 | 24 ft | 25 kts | 177° |
| 2026-04-15 13:54 | 26.20080 | 127.64771 | 24 ft | 24 kts | 178° |
| 2026-04-15 13:55 | 26.19911 | 127.64779 | 23 ft | 24 kts | 177° |
| 2026-04-15 13:55 | 26.19742 | 127.64786 | 23 ft | 24 kts | 178° |
| 2026-04-15 13:55 | 26.19573 | 127.64795 | 24 ft | 24 kts | 177° |
| 2026-04-15 13:55 | 26.19403 | 127.64803 | 23 ft | 24 kts | 178° |
| 2026-04-15 13:56 | 26.19234 | 127.64810 | 23 ft | 24 kts | 178° |
| 2026-04-15 13:56 | 26.19065 | 127.64819 | 23 ft | 24 kts | 177° |
| 2026-04-15 13:56 | 26.18896 | 127.64827 | 23 ft | 24 kts | 178° |
| 2026-04-15 13:56 | 26.18727 | 127.64834 | 22 ft | 24 kts | 178° |
| 2026-04-15 13:57 | 26.18558 | 127.64843 | 22 ft | 24 kts | 177° |
| 2026-04-15 13:57 | 26.18389 | 127.64851 | 22 ft | 24 kts | 176° |
| 2026-04-15 13:57 | 26.18289 | 127.64856 | 22 ft | 8 kts | 182° |
| 2026-04-15 13:57 | 26.18248 | 127.64822 | 23 ft | 8 kts | 246° |
| 2026-04-15 13:58 | 26.18242 | 127.64760 | 21 ft | 8 kts | 264° |
| 2026-04-15 13:58 | 26.18238 | 127.64693 | 20 ft | 9 kts | 268° |
| 2026-04-15 13:58 | 26.18279 | 127.64651 | 22 ft | 12 kts | 353° |
| 2026-04-15 13:58 | 26.18500 | 127.64638 | 23 ft | 62 kts | 358° |
| 2026-04-15 13:59 | 26.19181 | 127.64606 | 25 ft | 132 kts | 358° |
| 2026-04-15 13:59 | 26.20296 | 127.64543 | 97 ft | 178 kts | 358° |
| 2026-04-15 13:59 | 26.21557 | 127.64462 | 649 ft | 187 kts | 358° |
| 2026-04-15 13:59 | 26.22878 | 127.64429 | 1310 ft | 191 kts | 359° |
| 2026-04-15 14:00 | 26.24170 | 127.64162 | 1870 ft | 198 kts | 330° |
| 2026-04-15 14:00 | 26.25136 | 127.62948 | 1981 ft | 232 kts | 292° |
| 2026-04-15 14:00 | 26.25227 | 127.61066 | 2335 ft | 255 kts | 259° |
| 2026-04-15 14:00 | 26.24420 | 127.59301 | 3114 ft | 261 kts | 230° |
| 2026-04-15 14:01 | 26.21785 | 127.56563 | 4819 ft | 263 kts | 225° |
| 2026-04-15 14:01 | 26.20435 | 127.55191 | 5519 ft | 269 kts | 226° |
| 2026-04-15 14:01 | 26.19051 | 127.53764 | 6272 ft | 273 kts | 226° |
| 2026-04-15 14:02 | 26.17661 | 127.52316 | 7024 ft | 276 kts | 226° |
| 2026-04-15 14:02 | 26.16256 | 127.50846 | 7763 ft | 279 kts | 226° |
| 2026-04-15 14:02 | 26.14841 | 127.49362 | 8548 ft | 280 kts | 227° |
| 2026-04-15 14:02 | 26.13417 | 127.47864 | 9335 ft | 283 kts | 227° |
| 2026-04-15 14:03 | 26.11977 | 127.46346 | 10039 ft | 287 kts | 227° |
| 2026-04-15 14:03 | 26.10506 | 127.44793 | 10556 ft | 300 kts | 227° |
| 2026-04-15 14:03 | 26.08926 | 127.43123 | 10727 ft | 326 kts | 226° |
| 2026-04-15 14:03 | 26.07262 | 127.41278 | 10900 ft | 349 kts | 231° |
| 2026-04-15 14:04 | 26.05739 | 127.39111 | 11341 ft | 362 kts | 238° |
| 2026-04-15 14:04 | 26.04323 | 127.36762 | 12067 ft | 368 kts | 238° |
| 2026-04-15 14:04 | 26.02973 | 127.34504 | 12905 ft | 372 kts | 238° |
| 2026-04-15 14:04 | 26.01477 | 127.32006 | 13840 ft | 375 kts | 238° |
| 2026-04-15 14:05 | 26.00020 | 127.29579 | 14621 ft | 379 kts | 238° |
| 2026-04-15 14:05 | 25.98544 | 127.27130 | 15311 ft | 384 kts | 238° |
| 2026-04-15 14:05 | 25.97045 | 127.24647 | 16079 ft | 388 kts | 238° |
| 2026-04-15 14:05 | 25.95536 | 127.22153 | 16895 ft | 390 kts | 238° |
| 2026-04-15 14:06 | 25.94019 | 127.19650 | 17687 ft | 392 kts | 238° |
| 2026-04-15 14:06 | 25.92487 | 127.17124 | 18425 ft | 396 kts | 238° |
| 2026-04-15 14:06 | 25.90941 | 127.14575 | 19055 ft | 399 kts | 239° |
| 2026-04-15 14:06 | 25.89383 | 127.12010 | 19687 ft | 402 kts | 238° |
| 2026-04-15 14:07 | 25.87812 | 127.09422 | 20322 ft | 406 kts | 239° |
| 2026-04-15 14:07 | 25.86228 | 127.06817 | 20962 ft | 409 kts | 239° |
| 2026-04-15 14:07 | 25.84634 | 127.04195 | 21628 ft | 411 kts | 239° |
| 2026-04-15 14:07 | 25.83027 | 127.01555 | 22266 ft | 414 kts | 239° |
| 2026-04-15 14:08 | 25.81406 | 126.98893 | 22871 ft | 417 kts | 239° |
| 2026-04-15 14:08 | 25.79780 | 126.96223 | 23509 ft | 420 kts | 239° |
| 2026-04-15 14:08 | 25.78137 | 126.93527 | 23997 ft | 423 kts | 239° |
| 2026-04-15 14:08 | 25.76484 | 126.90815 | 24441 ft | 427 kts | 239° |
| 2026-04-15 14:09 | 25.74810 | 126.88073 | 24904 ft | 430 kts | 239° |
| 2026-04-15 14:09 | 25.73130 | 126.85316 | 25360 ft | 434 kts | 239° |
| 2026-04-15 14:09 | 25.71437 | 126.82529 | 25805 ft | 437 kts | 239° |
| 2026-04-15 14:09 | 25.69737 | 126.79728 | 26252 ft | 440 kts | 239° |
| 2026-04-15 14:10 | 25.68024 | 126.76904 | 26699 ft | 443 kts | 239° |
| 2026-04-15 14:10 | 25.66298 | 126.74060 | 27090 ft | 447 kts | 239° |
| 2026-04-15 14:10 | 25.64557 | 126.71191 | 27503 ft | 450 kts | 239° |
| 2026-04-15 14:10 | 25.62801 | 126.68302 | 27933 ft | 453 kts | 239° |
| 2026-04-15 14:11 | 25.61036 | 126.65400 | 28364 ft | 455 kts | 239° |
| 2026-04-15 14:11 | 25.59262 | 126.62486 | 28784 ft | 458 kts | 239° |
| 2026-04-15 14:11 | 25.57477 | 126.59554 | 29167 ft | 461 kts | 239° |
| 2026-04-15 14:11 | 25.55679 | 126.56603 | 29520 ft | 464 kts | 239° |
| 2026-04-15 14:12 | 25.53870 | 126.53637 | 29853 ft | 467 kts | 239° |
| 2026-04-15 14:12 | 25.52046 | 126.50648 | 30178 ft | 469 kts | 239° |
| 2026-04-15 14:12 | 25.50224 | 126.47664 | 30565 ft | 467 kts | 239° |
| 2026-04-15 14:12 | 25.48407 | 126.44693 | 31056 ft | 464 kts | 239° |
| 2026-04-15 14:13 | 25.46603 | 126.41744 | 31548 ft | 461 kts | 239° |
| 2026-04-15 14:13 | 25.44808 | 126.38811 | 32042 ft | 459 kts | 239° |
| 2026-04-15 14:13 | 25.43026 | 126.35901 | 32478 ft | 457 kts | 239° |
| 2026-04-15 14:13 | 25.41248 | 126.32997 | 32921 ft | 455 kts | 239° |
| 2026-04-15 14:14 | 25.39473 | 126.30101 | 33360 ft | 453 kts | 239° |
| 2026-04-15 14:14 | 25.37712 | 126.27228 | 33802 ft | 451 kts | 238° |
| 2026-04-15 14:14 | 25.35947 | 126.24351 | 33983 ft | 454 kts | 239° |
| 2026-04-15 14:15 | 25.32400 | 126.18572 | 34030 ft | 455 kts | 238° |
| 2026-04-15 14:15 | 25.30622 | 126.15679 | 34308 ft | 455 kts | 238° |
| 2026-04-15 14:15 | 25.28848 | 126.12796 | 34698 ft | 451 kts | 238° |
| 2026-04-15 14:15 | 25.27091 | 126.09943 | 35099 ft | 448 kts | 238° |
| 2026-04-15 14:16 | 25.25344 | 126.07107 | 35490 ft | 445 kts | 238° |
| 2026-04-15 14:16 | 25.23607 | 126.04290 | 35824 ft | 443 kts | 238° |
| 2026-04-15 14:16 | 25.21867 | 126.01466 | 35883 ft | 446 kts | 238° |
| 2026-04-15 14:17 | 25.18375 | 125.95804 | 35968 ft | 445 kts | 238° |
| 2026-04-15 14:17 | 25.14895 | 125.90172 | 35951 ft | 443 kts | 238° |
| 2026-04-15 14:18 | 25.11429 | 125.84570 | 35963 ft | 441 kts | 238° |
| 2026-04-15 14:18 | 25.08555 | 125.79928 | 35969 ft | 441 kts | 238° |
| 2026-04-15 14:19 | 25.04506 | 125.73396 | 35974 ft | 441 kts | 238° |
| 2026-04-15 14:19 | 25.01059 | 125.67842 | 35969 ft | 442 kts | 238° |
| 2026-04-15 14:20 | 24.98147 | 125.63154 | 35953 ft | 443 kts | 238° |
| 2026-04-15 14:20 | 24.94662 | 125.57552 | 35962 ft | 443 kts | 238° |
| 2026-04-15 14:21 | 24.90603 | 125.51036 | 35957 ft | 444 kts | 238° |
| 2026-04-15 14:21 | 24.87671 | 125.46333 | 35953 ft | 445 kts | 238° |
| 2026-04-15 14:22 | 24.84187 | 125.40752 | 35944 ft | 445 kts | 238° |
| 2026-04-15 14:22 | 24.80655 | 125.35101 | 35939 ft | 445 kts | 238° |
| 2026-04-15 14:23 | 24.77148 | 125.29495 | 35943 ft | 445 kts | 238° |
| 2026-04-15 14:23 | 24.73637 | 125.23891 | 35943 ft | 445 kts | 238° |
| 2026-04-15 14:24 | 24.70125 | 125.18292 | 35945 ft | 445 kts | 238° |
| 2026-04-15 14:24 | 24.66612 | 125.12696 | 35946 ft | 444 kts | 238° |
| 2026-04-15 14:25 | 24.63100 | 125.07109 | 35949 ft | 444 kts | 238° |
| 2026-04-15 14:25 | 24.59608 | 125.01560 | 35962 ft | 444 kts | 237° |
| 2026-04-15 14:26 | 24.56093 | 124.95980 | 35962 ft | 445 kts | 237° |
| 2026-04-15 14:26 | 24.52571 | 124.90396 | 35966 ft | 445 kts | 237° |
| 2026-04-15 14:27 | 24.49044 | 124.84811 | 35963 ft | 445 kts | 237° |
| 2026-04-15 14:27 | 24.45513 | 124.79226 | 35959 ft | 445 kts | 237° |
| 2026-04-15 14:28 | 24.41978 | 124.73640 | 35976 ft | 446 kts | 237° |
| 2026-04-15 14:28 | 24.38438 | 124.68054 | 35959 ft | 446 kts | 237° |
| 2026-04-15 14:29 | 24.34968 | 124.62584 | 35973 ft | 446 kts | 237° |
| 2026-04-15 14:29 | 24.31420 | 124.56996 | 35966 ft | 446 kts | 237° |
| 2026-04-15 14:30 | 24.27868 | 124.51410 | 35963 ft | 447 kts | 237° |
| 2026-04-15 14:30 | 24.24315 | 124.45827 | 35955 ft | 447 kts | 237° |
| 2026-04-15 14:31 | 24.20759 | 124.40247 | 35958 ft | 447 kts | 237° |
| 2026-04-15 14:31 | 24.17201 | 124.34669 | 35957 ft | 447 kts | 237° |
| 2026-04-15 14:32 | 24.13638 | 124.29089 | 35950 ft | 447 kts | 237° |
| 2026-04-15 14:32 | 24.10074 | 124.23516 | 35960 ft | 447 kts | 237° |
| 2026-04-15 14:33 | 24.06508 | 124.17943 | 35966 ft | 447 kts | 237° |
| 2026-04-15 14:34 | 24.02772 | 124.12113 | 35956 ft | 447 kts | 237° |
| 2026-04-15 14:35 | 23.99203 | 124.06548 | 35954 ft | 447 kts | 237° |
| 2026-04-15 14:35 | 23.95632 | 124.00986 | 35954 ft | 447 kts | 237° |
| 2026-04-15 14:36 | 23.92101 | 123.95399 | 35956 ft | 446 kts | 238° |
| 2026-04-15 14:36 | 23.88620 | 123.89777 | 35967 ft | 446 kts | 238° |
| 2026-04-15 14:37 | 23.85141 | 123.84162 | 35961 ft | 447 kts | 238° |
| 2026-04-15 14:37 | 23.81648 | 123.78548 | 35961 ft | 447 kts | 238° |
| 2026-04-15 14:38 | 23.78144 | 123.72931 | 35955 ft | 447 kts | 238° |
| 2026-04-15 14:38 | 23.74636 | 123.67314 | 35968 ft | 448 kts | 238° |
| 2026-04-15 14:39 | 23.71124 | 123.61698 | 35956 ft | 448 kts | 238° |
| 2026-04-15 14:39 | 23.67608 | 123.56079 | 35944 ft | 448 kts | 237° |
| 2026-04-15 14:40 | 23.64112 | 123.50500 | 35953 ft | 449 kts | 237° |
| 2026-04-15 14:40 | 23.60587 | 123.44881 | 35954 ft | 449 kts | 237° |
| 2026-04-15 14:41 | 23.57062 | 123.39266 | 35957 ft | 449 kts | 237° |
| 2026-04-15 14:41 | 23.53528 | 123.33644 | 35955 ft | 449 kts | 237° |
| 2026-04-15 14:42 | 23.49994 | 123.28029 | 35959 ft | 450 kts | 237° |
| 2026-04-15 14:42 | 23.46453 | 123.22409 | 35950 ft | 450 kts | 237° |
| 2026-04-15 14:43 | 23.42913 | 123.16796 | 35954 ft | 450 kts | 237° |
| 2026-04-15 14:43 | 23.39373 | 123.11189 | 35955 ft | 450 kts | 237° |
| 2026-04-15 14:44 | 23.35823 | 123.05570 | 35951 ft | 450 kts | 237° |
| 2026-04-15 14:44 | 23.32263 | 122.99965 | 35954 ft | 450 kts | 236° |
| 2026-04-15 14:45 | 23.28428 | 122.94567 | 35948 ft | 451 kts | 233° |
| 2026-04-15 14:45 | 23.24522 | 122.89219 | 35957 ft | 452 kts | 233° |
| 2026-04-15 14:46 | 23.20620 | 122.83866 | 35954 ft | 452 kts | 233° |
| 2026-04-15 14:46 | 23.16723 | 122.78503 | 35953 ft | 452 kts | 233° |
| 2026-04-15 14:47 | 23.12829 | 122.73138 | 35954 ft | 452 kts | 233° |
| 2026-04-15 14:47 | 23.08934 | 122.67777 | 35941 ft | 452 kts | 233° |
| 2026-04-15 14:48 | 23.05032 | 122.62413 | 35948 ft | 453 kts | 233° |
| 2026-04-15 14:48 | 23.01126 | 122.57050 | 35949 ft | 453 kts | 233° |
| 2026-04-15 14:49 | 22.97243 | 122.51724 | 35946 ft | 453 kts | 233° |
| 2026-04-15 14:49 | 22.93333 | 122.46367 | 35943 ft | 453 kts | 233° |
| 2026-04-15 14:50 | 22.89419 | 122.41009 | 35944 ft | 453 kts | 233° |
| 2026-04-15 14:50 | 22.85504 | 122.35656 | 35942 ft | 453 kts | 233° |
| 2026-04-15 14:51 | 22.81587 | 122.30305 | 35948 ft | 453 kts | 233° |
| 2026-04-15 14:51 | 22.77666 | 122.24954 | 35943 ft | 453 kts | 233° |
| 2026-04-15 14:52 | 22.73740 | 122.19602 | 35938 ft | 454 kts | 233° |
| 2026-04-15 14:52 | 22.69813 | 122.14255 | 35937 ft | 454 kts | 233° |
| 2026-04-15 14:53 | 22.65882 | 122.08907 | 35930 ft | 454 kts | 233° |
| 2026-04-15 14:53 | 22.61945 | 122.03557 | 35940 ft | 454 kts | 233° |
| 2026-04-15 14:54 | 22.58007 | 121.98211 | 35940 ft | 454 kts | 233° |
| 2026-04-15 14:54 | 22.54063 | 121.92861 | 35928 ft | 455 kts | 233° |
| 2026-04-15 14:55 | 22.50132 | 121.87535 | 35724 ft | 451 kts | 233° |
| 2026-04-15 14:55 | 22.48160 | 121.84864 | 34981 ft | 456 kts | 233° |
| 2026-04-15 14:55 | 22.46175 | 121.82177 | 34292 ft | 460 kts | 233° |
| 2026-04-15 14:55 | 22.44185 | 121.79485 | 33728 ft | 457 kts | 233° |
| 2026-04-15 14:56 | 22.42205 | 121.76809 | 33143 ft | 454 kts | 233° |
| 2026-04-15 14:56 | 22.40243 | 121.74157 | 32593 ft | 450 kts | 233° |
| 2026-04-15 14:56 | 22.38293 | 121.71524 | 32043 ft | 447 kts | 233° |
| 2026-04-15 14:56 | 22.36357 | 121.68912 | 31531 ft | 444 kts | 233° |
| 2026-04-15 14:57 | 22.34434 | 121.66320 | 31012 ft | 441 kts | 233° |
| 2026-04-15 14:57 | 22.32515 | 121.63740 | 30498 ft | 439 kts | 233° |
| 2026-04-15 14:57 | 22.30609 | 121.61179 | 30100 ft | 436 kts | 233° |
| 2026-04-15 14:57 | 22.28717 | 121.58639 | 29887 ft | 432 kts | 233° |
| 2026-04-15 14:58 | 22.26927 | 121.56236 | 29685 ft | 427 kts | 233° |
| 2026-04-15 14:58 | 22.25073 | 121.53745 | 29411 ft | 424 kts | 233° |
| 2026-04-15 14:58 | 22.23225 | 121.51264 | 29034 ft | 424 kts | 233° |
| 2026-04-15 14:58 | 22.21380 | 121.48786 | 28671 ft | 423 kts | 233° |
| 2026-04-15 14:59 | 22.19540 | 121.46318 | 28357 ft | 421 kts | 233° |
| 2026-04-15 14:59 | 22.17708 | 121.43862 | 28068 ft | 419 kts | 233° |
| 2026-04-15 14:59 | 22.15886 | 121.41419 | 27796 ft | 417 kts | 233° |
| 2026-04-15 14:59 | 22.14071 | 121.38988 | 27483 ft | 415 kts | 233° |
| 2026-04-15 15:00 | 22.12262 | 121.36565 | 27196 ft | 414 kts | 233° |
| 2026-04-15 15:00 | 22.10464 | 121.34158 | 26913 ft | 412 kts | 233° |
| 2026-04-15 15:00 | 22.08669 | 121.31755 | 26627 ft | 410 kts | 233° |
| 2026-04-15 15:00 | 22.06880 | 121.29362 | 26365 ft | 409 kts | 233° |
| 2026-04-15 15:01 | 22.05100 | 121.26982 | 26082 ft | 407 kts | 233° |
| 2026-04-15 15:01 | 22.03322 | 121.24606 | 25806 ft | 406 kts | 233° |
| 2026-04-15 15:01 | 22.01577 | 121.22274 | 25542 ft | 404 kts | 234° |
| 2026-04-15 15:01 | 22.00002 | 121.19738 | 25237 ft | 401 kts | 244° |
| 2026-04-15 15:02 | 21.98940 | 121.17026 | 24967 ft | 398 kts | 254° |
| 2026-04-15 15:02 | 21.98369 | 121.14121 | 24715 ft | 396 kts | 265° |
| 2026-04-15 15:02 | 21.98326 | 121.11169 | 24467 ft | 393 kts | 275° |
| 2026-04-15 15:02 | 21.98765 | 121.08272 | 24213 ft | 391 kts | 282° |
| 2026-04-15 15:03 | 21.99419 | 121.05442 | 23842 ft | 389 kts | 284° |
| 2026-04-15 15:03 | 22.00135 | 121.02638 | 23396 ft | 387 kts | 285° |
| 2026-04-15 15:03 | 22.00862 | 120.99854 | 22901 ft | 385 kts | 285° |
| 2026-04-15 15:03 | 22.01591 | 120.97082 | 22436 ft | 382 kts | 285° |
| 2026-04-15 15:04 | 22.02317 | 120.94341 | 22021 ft | 379 kts | 285° |
| 2026-04-15 15:04 | 22.03041 | 120.91622 | 21607 ft | 376 kts | 285° |
| 2026-04-15 15:04 | 22.03760 | 120.88928 | 21182 ft | 373 kts | 285° |
| 2026-04-15 15:04 | 22.04476 | 120.86250 | 20744 ft | 371 kts | 285° |
| 2026-04-15 15:05 | 22.05189 | 120.83589 | 20338 ft | 368 kts | 285° |
| 2026-04-15 15:05 | 22.05897 | 120.80950 | 19935 ft | 365 kts | 285° |
| 2026-04-15 15:05 | 22.06601 | 120.78327 | 19524 ft | 364 kts | 285° |
| 2026-04-15 15:05 | 22.07301 | 120.75717 | 19131 ft | 361 kts | 285° |
| 2026-04-15 15:06 | 22.08465 | 120.71382 | 18501 ft | 357 kts | 285° |
| 2026-04-15 15:06 | 22.09375 | 120.67983 | 17955 ft | 355 kts | 285° |
| 2026-04-15 15:06 | 22.09836 | 120.66264 | 17651 ft | 353 kts | 285° |
| 2026-04-15 15:07 | 22.10516 | 120.63729 | 17210 ft | 352 kts | 285° |
| 2026-04-15 15:07 | 22.11197 | 120.61200 | 16780 ft | 350 kts | 285° |
| 2026-04-15 15:07 | 22.11873 | 120.58689 | 16355 ft | 348 kts | 285° |
| 2026-04-15 15:07 | 22.12547 | 120.56191 | 15929 ft | 346 kts | 285° |
| 2026-04-15 15:08 | 22.13219 | 120.53704 | 15517 ft | 345 kts | 285° |
| 2026-04-15 15:08 | 22.13889 | 120.51228 | 15115 ft | 343 kts | 285° |
| 2026-04-15 15:08 | 22.14549 | 120.48796 | 14717 ft | 342 kts | 285° |
| 2026-04-15 15:08 | 22.15216 | 120.46342 | 14319 ft | 340 kts | 285° |
| 2026-04-15 15:09 | 22.15881 | 120.43901 | 13944 ft | 339 kts | 285° |
| 2026-04-15 15:09 | 22.16543 | 120.41472 | 13539 ft | 337 kts | 285° |
| 2026-04-15 15:09 | 22.17204 | 120.39049 | 13115 ft | 335 kts | 285° |
| 2026-04-15 15:09 | 22.17859 | 120.36646 | 12721 ft | 333 kts | 286° |
| 2026-04-15 15:10 | 22.18509 | 120.34254 | 12318 ft | 331 kts | 286° |
| 2026-04-15 15:10 | 22.19161 | 120.31873 | 11888 ft | 328 kts | 288° |
| 2026-04-15 15:10 | 22.20202 | 120.29730 | 11604 ft | 317 kts | 308° |
| 2026-04-15 15:10 | 22.21643 | 120.28033 | 11470 ft | 298 kts | 314° |
| 2026-04-15 15:11 | 22.23107 | 120.26512 | 11137 ft | 287 kts | 315° |
| 2026-04-15 15:11 | 22.24543 | 120.25061 | 10726 ft | 280 kts | 316° |
| 2026-04-15 15:11 | 22.25973 | 120.23611 | 10178 ft | 285 kts | 316° |
| 2026-04-15 15:11 | 22.27403 | 120.22151 | 9927 ft | 281 kts | 315° |
| 2026-04-15 15:12 | 22.28810 | 120.20716 | 9697 ft | 277 kts | 316° |
| 2026-04-15 15:12 | 22.30206 | 120.19286 | 9338 ft | 277 kts | 316° |
| 2026-04-15 15:12 | 22.31597 | 120.17857 | 9061 ft | 274 kts | 316° |
| 2026-04-15 15:12 | 22.32962 | 120.16455 | 8783 ft | 267 kts | 316° |
| 2026-04-15 15:13 | 22.34305 | 120.15076 | 8269 ft | 267 kts | 316° |
| 2026-04-15 15:13 | 22.35657 | 120.13681 | 7883 ft | 269 kts | 316° |
| 2026-04-15 15:13 | 22.37001 | 120.12289 | 7649 ft | 265 kts | 316° |
| 2026-04-15 15:13 | 22.38312 | 120.10929 | 7224 ft | 260 kts | 315° |
| 2026-04-15 15:14 | 22.39620 | 120.09572 | 6647 ft | 261 kts | 316° |
| 2026-04-15 15:14 | 22.40942 | 120.08234 | 6089 ft | 259 kts | 322° |
| 2026-04-15 15:14 | 22.42536 | 120.07420 | 5462 ft | 254 kts | 350° |
| 2026-04-15 15:14 | 22.44267 | 120.07237 | 4972 ft | 246 kts | 355° |
| 2026-04-15 15:15 | 22.45955 | 120.07106 | 4563 ft | 241 kts | 355° |
| 2026-04-15 15:15 | 22.47606 | 120.06972 | 4347 ft | 234 kts | 355° |
| 2026-04-15 15:15 | 22.49200 | 120.06843 | 4139 ft | 227 kts | 355° |
| 2026-04-15 15:15 | 22.50756 | 120.06719 | 3956 ft | 220 kts | 355° |
| 2026-04-15 15:16 | 22.52244 | 120.06596 | 3826 ft | 210 kts | 356° |
| 2026-04-15 15:16 | 22.53687 | 120.06475 | 3601 ft | 205 kts | 356° |
| 2026-04-15 15:16 | 22.55115 | 120.06355 | 3220 ft | 206 kts | 355° |
| 2026-04-15 15:16 | 22.56535 | 120.06466 | 3040 ft | 211 kts | 22° |
| 2026-04-15 15:17 | 22.57643 | 120.07475 | 3033 ft | 213 kts | 59° |
| 2026-04-15 15:17 | 22.58052 | 120.08999 | 3025 ft | 212 kts | 80° |
| 2026-04-15 15:17 | 22.58215 | 120.10593 | 3014 ft | 215 kts | 82° |
| 2026-04-15 15:17 | 22.58330 | 120.12184 | 3016 ft | 214 kts | 85° |
| 2026-04-15 15:18 | 22.58343 | 120.13785 | 3000 ft | 210 kts | 88° |
| 2026-04-15 15:18 | 22.58304 | 120.15347 | 2999 ft | 202 kts | 89° |
| 2026-04-15 15:18 | 22.58258 | 120.16837 | 2993 ft | 201 kts | 90° |
| 2026-04-15 15:18 | 22.58211 | 120.18371 | 2706 ft | 206 kts | 89° |
| 2026-04-15 15:19 | 22.58164 | 120.19909 | 2447 ft | 203 kts | 89° |
| 2026-04-15 15:19 | 22.58118 | 120.21411 | 2201 ft | 193 kts | 89° |
| 2026-04-15 15:19 | 22.58075 | 120.22814 | 1956 ft | 182 kts | 89° |
| 2026-04-15 15:19 | 22.58034 | 120.24155 | 1717 ft | 177 kts | 88° |
| 2026-04-15 15:20 | 22.57995 | 120.25480 | 1485 ft | 173 kts | 88° |
| 2026-04-15 15:20 | 22.57957 | 120.26732 | 1265 ft | 160 kts | 89° |
| 2026-04-15 15:20 | 22.57921 | 120.27903 | 1075 ft | 158 kts | 88° |
| 2026-04-15 15:20 | 22.57885 | 120.29091 | 884 ft | 159 kts | 88° |
| 2026-04-15 15:21 | 22.57849 | 120.30285 | 678 ft | 158 kts | 89° |
| 2026-04-15 15:21 | 22.57813 | 120.31476 | 480 ft | 159 kts | 89° |
| 2026-04-15 15:21 | 22.57775 | 120.32664 | 265 ft | 157 kts | 88° |
| 2026-04-15 15:21 | 22.57743 | 120.33830 | 63 ft | 156 kts | 88° |
| 2026-04-15 15:22 | 22.57710 | 120.34915 | 44 ft | 125 kts | 92° |
| 2026-04-15 15:22 | 22.57688 | 120.35655 | 42 ft | 72 kts | 91° |
| 2026-04-15 15:22 | 22.57675 | 120.36039 | 43 ft | 44 kts | 91° |
| 2026-04-15 15:22 | 22.57667 | 120.36304 | 45 ft | 22 kts | 92° |
| 2026-04-15 15:23 | 22.57658 | 120.36391 | 45 ft | 9 kts | 119° |
| 2026-04-15 15:23 | 22.57599 | 120.36413 | 44 ft | 10 kts | 181° |
| 2026-04-15 15:23 | 22.57531 | 120.36409 | 43 ft | 9 kts | 194° |
| 2026-04-15 15:23 | 22.57498 | 120.36354 | 43 ft | 9 kts | 270° |
| 2026-04-15 15:24 | 22.57501 | 120.36284 | 43 ft | 9 kts | 273° |
| 2026-04-15 15:24 | 22.57504 | 120.36213 | 43 ft | 9 kts | 272° |
| 2026-04-15 15:24 | 22.57506 | 120.36139 | 43 ft | 11 kts | 271° |
| 2026-04-15 15:24 | 22.57509 | 120.36032 | 43 ft | 15 kts | 272° |
| 2026-04-15 15:25 | 22.57512 | 120.35916 | 43 ft | 15 kts | 272° |
| 2026-04-15 15:25 | 22.57515 | 120.35825 | 43 ft | 12 kts | 272° |
| 2026-04-15 15:25 | 22.57517 | 120.35763 | 43 ft | 3 kts | 271° |
| 2026-04-15 15:25 | 22.57517 | 120.35761 | 43 ft | 0 kts | 271° |
| 2026-04-15 15:26 | 22.57517 | 120.35747 | 43 ft | 5 kts | 271° |
| 2026-04-15 15:26 | 22.57519 | 120.35675 | 43 ft | 5 kts | 271° |
| 2026-04-15 15:26 | 22.57519 | 120.35655 | 43 ft | 11 kts | 271° |
| 2026-04-15 15:26 | 22.57523 | 120.35545 | 43 ft | 7 kts | 272° |
| 2026-04-15 15:27 | 22.57527 | 120.35416 | 42 ft | 23 kts | 272° |
| 2026-04-15 15:27 | 22.57533 | 120.35244 | 42 ft | 23 kts | 272° |
| 2026-04-15 15:27 | 22.57538 | 120.35073 | 43 ft | 23 kts | 272° |
| 2026-04-15 15:27 | 22.57543 | 120.34903 | 43 ft | 23 kts | 272° |
| 2026-04-15 15:28 | 22.57549 | 120.34732 | 43 ft | 23 kts | 272° |
| 2026-04-15 15:28 | 22.57554 | 120.34561 | 43 ft | 23 kts | 272° |
| 2026-04-15 15:28 | 22.57557 | 120.34437 | 43 ft | 5 kts | 270° |
| 2026-04-15 15:28 | 22.57561 | 120.34332 | 43 ft | 21 kts | 272° |
| 2026-04-15 15:29 | 22.57565 | 120.34192 | 43 ft | 15 kts | 272° |
| 2026-04-15 15:29 | 22.57524 | 120.34124 | 43 ft | 12 kts | 188° |
| 2026-04-15 15:29 | 22.57447 | 120.34120 | 43 ft | 7 kts | 179° |
| 2026-04-15 15:29 | 22.57409 | 120.34150 | 43 ft | 7 kts | 115° |
| 2026-04-15 15:30 | 22.57405 | 120.34204 | 43 ft | 7 kts | 91° |
| 2026-04-15 15:30 | 22.57404 | 120.34266 | 43 ft | 9 kts | 91° |
| 2026-04-15 15:30 | 22.57402 | 120.34303 | 43 ft | 0 kts | 102° |
| 2026-04-15 15:30 | 22.57373 | 120.34320 | 43 ft | 6 kts | 169° |
| 2026-04-15 15:31 | 22.57327 | 120.34325 | 43 ft | 7 kts | 178° |
| 2026-04-15 15:31 | 22.57278 | 120.34324 | 43 ft | 7 kts | 191° |
| 2026-04-15 15:31 | 22.57266 | 120.34292 | 43 ft | 5 kts | 270° |
| 2026-04-15 15:31 | 22.57266 | 120.34255 | 43 ft | 5 kts | 270° |
| 2026-04-15 15:32 | 22.57267 | 120.34236 | 43 ft | 1 kts | 271° |
| 2026-04-15 15:32 | 22.57267 | 120.34233 | 43 ft | 0 kts | 271° |